createdAt,value
2023-07-12T00:00:45.017Z,5.65
2023-07-12T00:03:12.794Z,5.20
2023-07-12T00:05:40.392Z,4.90
2023-07-12T00:08:10.370Z,4.97
2023-07-12T00:10:37.824Z,4.88
2023-07-12T00:13:05.291Z,5.18
2023-07-12T00:15:33.745Z,5.22
2023-07-12T00:18:01.445Z,5.00
2023-07-12T00:20:30.911Z,5.10
2023-07-12T00:22:58.540Z,4.95
2023-07-12T00:25:27.400Z,5.07
2023-07-12T00:27:55.377Z,6.03
2023-07-12T00:30:30.379Z,5.68
2023-07-12T00:32:59.646Z,5.00
2023-07-12T00:35:28.107Z,6.30
2023-07-12T00:37:56.668Z,5.97
2023-07-12T00:40:31.330Z,5.53
2023-07-12T00:43:14.105Z,5.32
2023-07-12T00:45:41.829Z,7.57
2023-07-12T00:48:13.593Z,8.18
2023-07-12T00:50:42.052Z,8.05
2023-07-12T00:53:19.379Z,8.50
2023-07-12T00:56:06.770Z,8.45
2023-07-12T00:58:37.572Z,8.60
2023-07-12T01:01:05.954Z,7.38
2023-07-12T01:03:35.595Z,6.53
2023-07-12T01:06:03.405Z,6.18
2023-07-12T01:08:31.532Z,5.78
2023-07-12T01:10:59.802Z,5.80
2023-07-12T01:13:27.322Z,7.05
2023-07-12T01:15:54.804Z,6.68
2023-07-12T01:18:22.283Z,6.13
2023-07-12T01:20:53.154Z,6.18
2023-07-12T01:23:20.501Z,6.53
2023-07-12T01:25:48.409Z,7.05
2023-07-12T01:28:15.807Z,7.03
2023-07-12T01:30:43.353Z,6.60
2023-07-12T01:33:11.432Z,6.80
2023-07-12T01:35:38.863Z,6.35
2023-07-12T01:38:06.392Z,6.05
2023-07-12T01:40:33.788Z,6.70
2023-07-12T01:43:01.111Z,6.43
2023-07-12T01:45:28.427Z,6.20
2023-07-12T01:47:58.205Z,5.70
2023-07-12T01:50:25.642Z,5.53
2023-07-12T01:52:53.007Z,6.57
2023-07-12T01:55:20.325Z,5.65
2023-07-12T01:57:47.688Z,6.18
2023-07-12T02:00:15.955Z,5.90
2023-07-12T02:02:43.480Z,5.90
2023-07-12T02:05:11.422Z,7.07
2023-07-12T02:07:38.820Z,6.45
2023-07-12T02:10:10.664Z,6.35
2023-07-12T02:12:38.152Z,6.22
2023-07-12T02:15:05.819Z,6.72
2023-07-12T02:17:33.255Z,6.60
2023-07-12T02:20:00.740Z,6.10
2023-07-12T02:22:46.903Z,5.70
2023-07-12T02:25:15.039Z,5.95
2023-07-12T02:27:43.044Z,5.80
2023-07-12T02:30:12.371Z,6.90
2023-07-12T02:32:39.943Z,6.70
2023-07-12T02:35:07.563Z,6.40
2023-07-12T02:37:35.006Z,6.70
2023-07-12T02:40:03.768Z,7.85
2023-07-12T02:42:31.891Z,6.95
2023-07-12T02:44:59.572Z,6.80
2023-07-12T02:47:27.026Z,6.88
2023-07-12T02:49:54.456Z,6.68
2023-07-12T02:52:21.934Z,6.50
2023-07-12T02:54:49.456Z,6.88
2023-07-12T02:57:17.470Z,7.35
2023-07-12T02:59:45.209Z,7.03
2023-07-12T03:02:13.993Z,6.18
2023-07-12T03:04:42.172Z,6.35
2023-07-12T03:07:10.704Z,6.43
2023-07-12T03:09:38.223Z,5.72
2023-07-12T03:12:06.311Z,6.22
2023-07-12T03:14:33.906Z,6.85
2023-07-12T03:17:04.391Z,5.72
2023-07-12T03:19:32.178Z,5.88
2023-07-12T03:21:59.540Z,6.70
2023-07-12T03:24:27.044Z,6.38
2023-07-12T03:26:54.438Z,6.20
2023-07-12T03:29:21.754Z,6.38
2023-07-12T03:31:49.143Z,6.50
2023-07-12T03:34:16.606Z,7.03
2023-07-12T03:36:44.010Z,7.30
2023-07-12T03:39:11.415Z,6.28
2023-07-12T03:41:39.151Z,7.03
2023-07-12T03:44:06.478Z,7.00
2023-07-12T03:46:33.834Z,6.32
2023-07-12T03:49:01.235Z,6.13
2023-07-12T03:51:28.631Z,6.85
2023-07-12T03:53:56.021Z,7.35
2023-07-12T03:56:23.750Z,7.57
2023-07-12T03:58:51.507Z,8.80
2023-07-12T04:01:19.772Z,9.27
2023-07-12T04:03:48.166Z,7.50
2023-07-12T04:06:15.967Z,7.93
2023-07-12T04:08:43.499Z,7.18
2023-07-12T04:11:26.047Z,5.60
2023-07-12T04:13:53.668Z,6.90
2023-07-12T04:16:21.520Z,6.75
2023-07-12T04:18:49.097Z,6.88
2023-07-12T04:21:16.554Z,6.95
2023-07-12T04:23:44.044Z,6.60
2023-07-12T04:26:11.846Z,7.53
2023-07-12T04:28:40.606Z,7.40
2023-07-12T04:31:12.906Z,6.88
2023-07-12T04:33:40.767Z,6.35
2023-07-12T04:36:09.410Z,5.63
2023-07-12T04:38:37.324Z,6.18
2023-07-12T04:41:07.501Z,6.32
2023-07-12T04:43:35.315Z,6.05
2023-07-12T04:46:04.654Z,5.85
2023-07-12T04:48:32.460Z,5.82
2023-07-12T04:50:59.888Z,5.00
2023-07-12T04:53:27.510Z,6.03
2023-07-12T04:55:56.470Z,6.07
2023-07-12T04:58:24.012Z,6.15
2023-07-12T05:00:51.387Z,5.60
2023-07-12T05:03:18.918Z,5.63
2023-07-12T05:05:46.773Z,5.13
2023-07-12T05:08:14.307Z,5.30
2023-07-12T05:10:41.687Z,6.35
2023-07-12T05:13:09.060Z,4.97
2023-07-12T05:15:36.407Z,4.88
2023-07-12T05:18:03.983Z,5.10
2023-07-12T05:20:31.559Z,5.28
2023-07-12T05:22:58.978Z,6.05
2023-07-12T05:25:26.428Z,5.38
2023-07-12T05:27:53.847Z,5.80
2023-07-12T05:30:21.330Z,5.35
2023-07-12T05:32:48.932Z,4.78
2023-07-12T05:35:16.905Z,5.78
2023-07-12T05:37:44.551Z,4.68
2023-07-12T05:40:12.248Z,5.57
2023-07-12T05:42:42.248Z,4.88
2023-07-12T05:45:11.196Z,5.30
2023-07-12T05:47:39.811Z,5.18
2023-07-12T05:50:08.700Z,5.35
2023-07-12T05:52:36.147Z,5.25
2023-07-12T05:55:03.580Z,5.72
2023-07-12T05:57:31.087Z,4.68
2023-07-12T05:59:58.514Z,4.78
2023-07-12T06:02:26.035Z,5.72
2023-07-12T06:04:53.588Z,6.25
2023-07-12T06:07:21.263Z,4.65
2023-07-12T06:09:48.656Z,5.10
2023-07-12T06:12:16.063Z,5.32
2023-07-12T06:14:43.632Z,4.72
2023-07-12T06:17:11.084Z,4.38
2023-07-12T06:19:38.699Z,4.78
2023-07-12T06:22:06.232Z,4.70
2023-07-12T06:24:33.704Z,4.25
2023-07-12T06:27:01.116Z,5.03
2023-07-12T06:29:28.737Z,3.70
2023-07-12T06:31:56.186Z,4.57
2023-07-12T06:34:24.060Z,4.40
2023-07-12T06:36:51.466Z,4.82
2023-07-12T06:39:18.857Z,4.20
2023-07-12T06:41:46.288Z,3.92
2023-07-12T06:44:13.811Z,4.40
2023-07-12T06:46:41.337Z,4.10
2023-07-12T06:49:15.119Z,5.28
2023-07-12T06:51:42.507Z,4.45
2023-07-12T06:54:09.992Z,4.45
2023-07-12T06:56:37.409Z,4.10
2023-07-12T06:59:05.044Z,4.50
2023-07-12T07:01:32.557Z,4.05
2023-07-12T07:04:01.041Z,4.15
2023-07-12T07:06:28.531Z,3.58
2023-07-12T07:08:55.828Z,3.03
2023-07-12T07:11:23.246Z,3.22
2023-07-12T07:13:51.818Z,2.80
2023-07-12T07:16:19.826Z,3.08
2023-07-12T07:18:47.496Z,3.53
2023-07-12T07:21:15.069Z,3.35
2023-07-12T07:23:43.722Z,3.15
2023-07-12T07:26:13.633Z,3.45
2023-07-12T07:28:41.304Z,4.00
2023-07-12T07:31:09.071Z,3.80
2023-07-12T07:33:38.927Z,4.15
2023-07-12T07:36:10.500Z,3.88
2023-07-12T07:38:38.586Z,3.72
2023-07-12T07:41:07.264Z,4.70
2023-07-12T07:43:37.226Z,4.07
2023-07-12T07:46:08.963Z,4.20
2023-07-12T07:48:37.268Z,4.25
2023-07-12T07:51:06.856Z,4.28
2023-07-12T07:53:34.615Z,4.07
2023-07-12T07:56:01.975Z,4.30
2023-07-12T07:58:29.750Z,4.05
2023-07-12T08:00:57.137Z,4.10
2023-07-12T08:03:24.691Z,3.88
2023-07-12T08:05:52.306Z,3.97
2023-07-12T08:08:21.645Z,4.43
2023-07-12T08:10:49.267Z,5.05
2023-07-12T08:13:16.750Z,4.55
2023-07-12T08:15:44.519Z,3.78
2023-07-12T08:18:13.600Z,4.80
2023-07-12T08:20:44.476Z,4.72
2023-07-12T08:23:11.809Z,4.95
2023-07-12T08:25:39.229Z,4.57
2023-07-12T08:28:06.615Z,4.82
2023-07-12T08:30:34.024Z,4.50
2023-07-12T08:33:01.438Z,4.75
2023-07-12T08:37:59.101Z,5.75
2023-07-12T08:40:27.102Z,5.50
2023-07-12T08:42:54.544Z,5.32
2023-07-12T08:45:34.516Z,4.68
2023-07-12T08:48:03.259Z,4.90
2023-07-12T08:50:40.963Z,4.57
2023-07-12T08:53:19.591Z,4.88
2023-07-12T08:55:47.030Z,5.20
2023-07-12T08:58:19.746Z,4.65
2023-07-12T09:00:49.599Z,4.72
2023-07-12T09:03:16.953Z,4.47
2023-07-12T09:05:44.420Z,4.90
2023-07-12T09:08:11.933Z,4.53
2023-07-12T09:10:42.461Z,4.50
2023-07-12T09:13:13.432Z,5.07
2023-07-12T09:15:51.469Z,4.28
2023-07-12T09:18:24.758Z,5.35
2023-07-12T09:20:52.842Z,4.63
2023-07-12T09:23:20.252Z,4.78
2023-07-12T09:25:54.830Z,4.97
2023-07-12T09:28:22.546Z,4.70
2023-07-12T09:30:52.027Z,4.90
2023-07-12T09:33:24.323Z,4.95
2023-07-12T09:35:52.424Z,4.07
2023-07-12T09:38:24.405Z,5.55
2023-07-12T09:40:54.072Z,4.82
2023-07-12T09:43:23.026Z,4.55
2023-07-12T09:46:12.825Z,4.80
2023-07-12T09:48:49.868Z,4.68
2023-07-12T09:51:30.103Z,5.28
2023-07-12T09:54:00.543Z,5.18
2023-07-12T09:56:36.984Z,4.97
2023-07-12T09:59:10.710Z,5.43
2023-07-12T10:01:40.896Z,4.22
2023-07-12T10:04:31.392Z,4.32
2023-07-12T10:06:58.819Z,4.00
2023-07-12T10:09:28.907Z,5.05
2023-07-12T10:12:06.357Z,4.78
2023-07-12T10:14:35.608Z,4.25
2023-07-12T10:17:03.906Z,4.82
2023-07-12T10:19:39.787Z,4.28
2023-07-12T10:22:14.575Z,3.88
2023-07-12T10:24:43.817Z,3.25
2023-07-12T10:27:18.070Z,4.35
2023-07-12T10:29:47.578Z,5.63
2023-07-12T10:32:19.090Z,3.40
2023-07-12T10:34:48.994Z,3.33
2023-07-12T10:37:19.165Z,3.53
2023-07-12T10:39:48.091Z,2.78
2023-07-12T10:42:35.740Z,4.35
2023-07-12T10:45:03.612Z,3.28
2023-07-12T10:47:33.878Z,3.40
2023-07-12T10:50:08.968Z,3.33
2023-07-12T10:52:56.298Z,3.42
2023-07-12T10:55:43.992Z,3.40
2023-07-12T10:58:17.097Z,3.75
2023-07-12T11:00:51.923Z,3.67
2023-07-12T11:03:42.621Z,3.42
2023-07-12T11:06:26.795Z,3.15
2023-07-12T11:09:12.471Z,3.15
2023-07-12T11:11:43.531Z,3.42
2023-07-12T11:14:19.843Z,2.80
2023-07-12T11:17:07.618Z,3.00
2023-07-12T11:19:40.990Z,3.28
2023-07-12T11:22:14.166Z,3.28
2023-07-12T11:24:49.910Z,3.13
2023-07-12T11:27:28.992Z,2.97
2023-07-12T11:29:59.913Z,3.03
2023-07-12T11:32:34.303Z,3.40
2023-07-12T11:35:04.514Z,3.20
2023-07-12T11:37:52.111Z,3.15
2023-07-12T11:40:21.858Z,2.80
2023-07-12T11:42:50.307Z,3.38
2023-07-12T11:45:21.293Z,3.40
2023-07-12T11:47:51.184Z,3.00
2023-07-12T11:50:21.309Z,2.50
2023-07-12T11:52:50.229Z,3.13
2023-07-12T11:55:19.533Z,3.33
2023-07-12T11:57:47.687Z,2.95
2023-07-12T12:00:23.124Z,3.03
2023-07-12T12:02:52.077Z,2.97
2023-07-12T12:05:26.447Z,2.88
2023-07-12T12:07:55.332Z,3.17
2023-07-12T12:10:30.792Z,3.05
2023-07-12T12:12:58.343Z,3.00
2023-07-12T12:15:33.516Z,2.70
2023-07-12T12:18:07.132Z,3.35
2023-07-12T12:20:36.675Z,3.10
2023-07-12T12:23:14.507Z,2.90
2023-07-12T12:25:48.836Z,3.47
2023-07-12T12:28:36.488Z,3.55
2023-07-12T12:31:12.932Z,3.95
2023-07-12T12:33:45.913Z,3.58
2023-07-12T12:36:31.918Z,3.40
2023-07-12T12:39:12.229Z,3.28
2023-07-12T12:41:45.823Z,3.75
2023-07-12T12:44:13.185Z,4.00
2023-07-12T12:54:25.278Z,2.90
2023-07-12T13:19:29.998Z,3.13
2023-07-12T13:21:58.112Z,3.15
2023-07-12T13:24:25.709Z,3.00
2023-07-12T13:26:53.119Z,3.15
2023-07-12T13:29:21.185Z,3.15
2023-07-12T13:31:48.789Z,2.80
2023-07-12T13:34:18.590Z,3.28
2023-07-12T13:36:48.535Z,3.47
2023-07-12T13:46:49.757Z,3.00
2023-07-12T13:49:20.814Z,3.50
2023-07-12T13:51:48.934Z,3.28
2023-07-12T13:54:17.168Z,3.28
2023-07-12T13:56:47.535Z,3.00
2023-07-12T13:59:18.561Z,3.40
2023-07-12T14:02:37.376Z,3.22
2023-07-12T14:04:36.629Z,3.30
2023-07-12T14:09:36.739Z,4.10
2023-07-12T14:12:04.427Z,3.03
2023-07-12T14:14:31.856Z,3.13
2023-07-12T14:17:00.624Z,3.08
2023-07-12T14:19:32.350Z,3.70
2023-07-12T14:22:00.047Z,4.05
2023-07-12T14:24:27.508Z,3.67
2023-07-12T14:26:54.865Z,3.53
2023-07-12T14:31:52.827Z,3.40
2023-07-12T14:34:20.466Z,3.38
2023-07-12T14:36:47.996Z,3.15
2023-07-12T14:39:15.584Z,3.72
2023-07-12T14:41:44.588Z,3.08
2023-07-12T14:44:16.797Z,3.25
2023-07-12T14:46:44.718Z,4.15
2023-07-12T14:49:12.195Z,3.63
2023-07-12T14:51:41.217Z,3.63
2023-07-12T14:54:15.011Z,3.17
2023-07-12T14:56:42.439Z,3.53
2023-07-12T14:59:13.513Z,3.80
2023-07-12T15:01:40.907Z,3.30
2023-07-12T15:04:12.562Z,3.10
2023-07-12T15:06:40.027Z,3.00
2023-07-12T15:09:09.559Z,3.25
2023-07-12T15:11:41.693Z,3.35
2023-07-12T15:14:12.080Z,3.10
2023-07-12T15:16:41.708Z,3.60
2023-07-12T15:19:09.255Z,3.83
2023-07-12T15:21:36.663Z,4.10
2023-07-12T15:24:04.035Z,3.22
2023-07-12T15:26:31.404Z,3.30
2023-07-12T15:28:58.747Z,3.08
2023-07-12T15:31:34.652Z,3.80
2023-07-12T15:34:03.079Z,3.00
2023-07-12T15:36:33.137Z,3.30
2023-07-12T15:39:00.493Z,3.10
2023-07-12T15:41:30.299Z,3.85
2023-07-12T15:43:58.916Z,3.45
2023-07-12T15:46:29.852Z,3.25
2023-07-12T15:48:57.944Z,3.75
2023-07-12T15:51:28.651Z,3.67
2023-07-12T15:53:56.774Z,3.13
2023-07-12T15:56:36.727Z,3.95
2023-07-12T15:59:05.605Z,3.88
2023-07-12T16:01:33.273Z,4.65
2023-07-12T16:04:00.747Z,7.15
2023-07-12T16:06:28.225Z,5.53
2023-07-12T16:08:55.631Z,4.70
2023-07-12T16:11:25.732Z,4.68
2023-07-12T16:16:27.149Z,4.22
2023-07-12T16:18:54.849Z,3.72
2023-07-12T16:21:26.488Z,4.28
2023-07-12T16:23:54.565Z,4.25
2023-07-12T16:26:23.605Z,4.35
2023-07-12T16:28:51.344Z,5.00
2023-07-12T16:31:21.833Z,3.63
2023-07-12T16:33:49.177Z,4.70
2023-07-12T16:36:16.547Z,4.30
2023-07-12T16:38:44.508Z,3.95
2023-07-12T16:41:15.026Z,5.07
2023-07-12T16:43:42.553Z,5.38
2023-07-12T16:46:11.857Z,4.55
2023-07-12T16:48:39.512Z,4.88
2023-07-12T16:51:13.108Z,4.85
2023-07-12T16:53:40.434Z,4.82
2023-07-12T16:56:11.077Z,4.70
2023-07-12T16:58:39.024Z,4.72
2023-07-12T17:01:11.269Z,4.88
2023-07-12T17:03:43.439Z,4.15
2023-07-12T17:06:12.736Z,4.57
2023-07-12T17:08:40.905Z,4.82
2023-07-12T17:11:11.112Z,5.00
2023-07-12T17:13:38.633Z,4.25
2023-07-12T17:16:06.523Z,5.38
2023-07-12T17:18:34.046Z,4.53
2023-07-12T17:21:01.907Z,4.25
2023-07-12T17:23:30.526Z,4.88
2023-07-12T17:25:59.749Z,4.75
2023-07-12T17:28:29.016Z,4.85
2023-07-12T17:31:01.985Z,5.43
2023-07-12T17:33:30.022Z,5.65
2023-07-12T17:35:57.591Z,4.80
2023-07-12T17:38:25.108Z,4.93
2023-07-12T17:40:53.881Z,4.60
2023-07-12T17:43:30.545Z,5.30
2023-07-12T17:45:58.134Z,4.25
2023-07-12T17:48:26.149Z,5.55
2023-07-12T17:51:01.701Z,4.53
2023-07-12T17:53:29.530Z,4.88
2023-07-12T17:55:58.322Z,5.07
2023-07-12T17:58:28.987Z,4.15
2023-07-12T18:00:57.179Z,5.45
2023-07-12T18:03:26.821Z,4.32
2023-07-12T18:05:54.630Z,4.70
2023-07-12T18:08:23.105Z,5.85
2023-07-12T18:10:57.640Z,4.78
2023-07-12T18:13:34.931Z,5.00
2023-07-12T18:16:02.306Z,4.95
2023-07-12T18:18:29.814Z,4.80
2023-07-12T18:20:58.256Z,4.82
2023-07-12T18:23:26.632Z,4.85
2023-07-12T18:25:54.350Z,4.53
2023-07-12T18:28:22.459Z,5.40
2023-07-12T18:30:51.263Z,5.60
2023-07-12T18:33:20.514Z,6.13
2023-07-12T18:35:51.574Z,3.40
2023-07-12T18:38:20.025Z,4.10
2023-07-12T18:40:47.986Z,3.55
2023-07-12T18:43:33.570Z,2.58
2023-07-12T18:46:03.540Z,3.05
2023-07-12T18:48:30.954Z,2.85
2023-07-12T18:50:58.660Z,3.92
2023-07-12T18:53:28.745Z,3.35
2023-07-12T18:55:56.033Z,2.58
2023-07-12T18:58:24.773Z,2.67
2023-07-12T19:00:52.812Z,2.60
2023-07-12T19:03:34.043Z,3.05
2023-07-12T19:06:02.702Z,2.60
2023-07-12T19:08:30.074Z,3.10
2023-07-12T19:10:57.475Z,2.95
2023-07-12T19:13:27.348Z,2.47
2023-07-12T19:15:54.733Z,2.50
2023-07-12T19:18:22.270Z,2.30
2023-07-12T19:20:49.746Z,2.15
2023-07-12T19:23:17.889Z,2.55
2023-07-12T19:25:45.507Z,2.70
2023-07-12T19:28:12.860Z,2.50
2023-07-12T19:30:40.286Z,2.47
2023-07-12T19:33:15.877Z,2.38
2023-07-12T19:35:43.159Z,2.35
2023-07-12T19:38:10.637Z,2.78
2023-07-12T19:40:37.974Z,2.40
2023-07-12T19:43:06.369Z,2.35
2023-07-12T19:45:34.004Z,1.98
2023-07-12T19:48:01.478Z,2.03
2023-07-12T19:50:32.861Z,2.22
2023-07-12T19:53:00.430Z,2.53
2023-07-12T19:55:29.425Z,2.35
2023-07-12T19:57:56.793Z,2.10
2023-07-12T20:00:28.138Z,2.40
2023-07-12T20:02:55.815Z,2.08
2023-07-12T20:05:24.207Z,2.30
2023-07-12T20:07:51.667Z,1.92
2023-07-12T20:10:19.359Z,2.22
2023-07-12T20:12:46.850Z,1.58
2023-07-12T20:15:14.493Z,1.80
2023-07-12T20:17:42.173Z,1.90
2023-07-12T20:20:13.991Z,2.05
2023-07-12T20:22:42.602Z,1.70
2023-07-12T20:25:11.165Z,1.52
2023-07-12T20:27:38.507Z,1.65
2023-07-12T20:30:06.115Z,1.90
2023-07-12T20:32:34.431Z,1.88
2023-07-12T20:35:01.807Z,1.73
2023-07-12T20:37:31.995Z,2.05
2023-07-12T20:40:00.652Z,1.98
2023-07-12T20:42:29.262Z,1.75
2023-07-12T20:44:56.657Z,1.77
2023-07-12T20:47:27.309Z,2.10
2023-07-12T20:49:57.931Z,1.70
2023-07-12T20:52:25.674Z,1.70
2023-07-12T20:54:53.375Z,2.00
2023-07-12T20:57:22.030Z,2.20
2023-07-12T20:59:49.706Z,1.85
2023-07-12T21:02:17.036Z,2.10
2023-07-12T21:04:44.387Z,1.92
2023-07-12T21:07:12.311Z,1.90
2023-07-12T21:09:39.597Z,1.92
2023-07-12T21:12:07.112Z,1.70
2023-07-12T21:14:34.472Z,2.10
2023-07-12T21:17:01.797Z,1.88
2023-07-12T21:19:29.267Z,2.08
2023-07-12T21:21:56.608Z,1.95
2023-07-12T21:24:23.946Z,2.05
2023-07-12T21:26:51.258Z,1.85
2023-07-12T21:29:18.583Z,2.30
2023-07-12T21:31:45.917Z,1.67
2023-07-12T21:34:14.590Z,1.70
2023-07-12T21:36:42.586Z,1.95
2023-07-12T21:39:13.261Z,1.80
2023-07-12T21:41:40.577Z,2.03
2023-07-12T21:44:08.105Z,1.95
2023-07-12T21:46:35.666Z,1.70
2023-07-12T21:49:04.157Z,2.40
2023-07-12T21:51:31.411Z,2.00
2023-07-12T21:53:59.831Z,2.20
2023-07-12T21:56:27.288Z,1.92
2023-07-12T21:58:55.229Z,1.88
2023-07-12T22:01:22.729Z,1.52
2023-07-12T22:03:50.449Z,1.60
2023-07-12T22:06:18.733Z,1.90
2023-07-12T22:08:47.131Z,1.73
2023-07-12T22:11:16.417Z,1.92
2023-07-12T22:13:44.314Z,3.25
2023-07-12T22:16:13.014Z,1.75
2023-07-12T22:18:48.404Z,1.90
2023-07-12T22:21:18.342Z,1.80
2023-07-12T22:23:45.647Z,1.63
2023-07-12T22:26:14.998Z,2.00
2023-07-12T22:28:42.358Z,1.70
2023-07-12T22:31:10.247Z,1.63
2023-07-12T22:33:37.653Z,1.70
2023-07-12T22:36:07.798Z,1.80
2023-07-12T22:38:35.715Z,2.10
2023-07-12T22:41:05.117Z,1.85
2023-07-12T22:43:33.515Z,1.60
2023-07-12T22:46:05.399Z,1.70
2023-07-12T22:48:34.658Z,1.67
2023-07-12T22:51:02.498Z,1.70
2023-07-12T22:53:32.969Z,2.55
2023-07-12T22:56:03.178Z,1.50
2023-07-12T22:58:31.053Z,1.80
2023-07-12T23:01:00.366Z,2.00
2023-07-12T23:03:28.347Z,1.65
2023-07-12T23:05:59.028Z,1.75
2023-07-12T23:08:30.448Z,1.88
2023-07-12T23:10:58.448Z,1.75
2023-07-12T23:13:27.393Z,1.63
2023-07-12T23:15:56.080Z,1.70
2023-07-12T23:18:25.458Z,1.77
2023-07-12T23:20:53.648Z,1.80
2023-07-12T23:23:23.798Z,1.42
2023-07-12T23:25:51.683Z,1.95
2023-07-12T23:28:19.406Z,1.58
2023-07-12T23:30:47.309Z,1.70
2023-07-12T23:33:15.294Z,1.70
2023-07-12T23:35:42.778Z,1.88
2023-07-12T23:38:10.243Z,1.48
2023-07-12T23:40:39.204Z,1.90
2023-07-12T23:43:06.685Z,1.48
2023-07-12T23:45:38.527Z,1.70
2023-07-12T23:48:06.316Z,2.00
2023-07-12T23:50:34.459Z,2.10
2023-07-12T23:53:02.595Z,1.75
2023-07-12T23:55:33.025Z,1.95
2023-07-12T23:58:01.119Z,1.98
